Time;durP1;ratioP1;P1;durP2;ratioP2;P2;SDS_P1;SDS_P2;PMS_P1;PMS_P2;Temp;Humidity;BMP_temperature;BMP_pressure;BME280_temperature;BME280_humidity;BME280_pressure;Samples;Min_cycle;Max_cycle;Signal;HPM_P1;HPM_P2
2022/11/07 00:02:05;;;;;;;64.72;26.55;;;;;;;2.51;100.00;100349.88;5056257;28;20035;-71
2022/11/07 00:04:51;;;;;;;56.15;23.98;;;;;;;2.49;100.00;100352.34;5075609;28;20023;-71
2022/11/07 00:07:17;;;;;;;61.00;23.45;;;;;;;2.44;100.00;100350.81;5056990;28;20057;-71
2022/11/07 00:09:43;;;;;;;57.63;23.65;;;;;;;2.39;100.00;100344.91;5075545;28;20020;-73
2022/11/07 00:12:10;;;;;;;60.80;23.40;;;;;;;2.40;100.00;100344.47;5057333;28;20072;-72
2022/11/07 00:14:36;;;;;;;61.38;24.02;;;;;;;2.42;100.00;100344.81;5075426;28;20089;-71
2022/11/07 00:17:02;;;;;;;63.22;24.42;;;;;;;2.33;100.00;100330.53;5057341;28;20429;-71
2022/11/07 00:19:28;;;;;;;54.15;22.20;;;;;;;2.29;100.00;100338.28;5075059;28;20492;-71
2022/11/07 00:21:59;;;;;;;63.28;23.05;;;;;;;2.21;100.00;100334.00;5073268;28;20041;-71
2022/11/07 00:24:25;;;;;;;61.00;23.45;;;;;;;2.18;100.00;100330.03;5056149;28;20031;-70
2022/11/07 00:26:50;;;;;;;62.00;24.95;;;;;;;2.20;100.00;100338.84;5073925;28;20028;-71
2022/11/07 00:29:18;;;;;;;60.08;24.77;;;;;;;2.21;100.00;100334.00;5073801;28;20424;-70
2022/11/07 00:31:44;;;;;;;55.63;22.40;;;;;;;2.22;100.00;100339.22;5074153;28;20024;-71
2022/11/07 00:34:10;;;;;;;57.88;21.48;;;;;;;2.20;100.00;100335.22;5039333;28;20472;-71
2022/11/07 00:36:37;;;;;;;58.78;23.75;;;;;;;2.22;100.00;100339.22;5073493;28;20024;-71
2022/11/07 00:39:04;;;;;;;56.97;21.13;;;;;;;2.24;100.00;100338.78;5055688;28;20024;-72
2022/11/07 00:41:32;;;;;;;48.40;22.08;;;;;;;2.24;100.00;100335.97;5055499;28;20099;-72
2022/11/07 00:43:58;;;;;;;50.95;21.73;;;;;;;2.23;100.00;100335.19;5074101;28;20020;-71
2022/11/07 00:46:26;;;;;;;62.47;21.92;;;;;;;2.23;100.00;100337.19;5055576;28;20032;-70
2022/11/07 00:48:57;;;;;;;54.85;21.58;;;;;;;2.24;100.00;100333.16;5072464;28;20048;-70
2022/11/07 00:51:25;;;;;;;57.85;21.67;;;;;;;2.26;100.00;100334.28;5074163;28;20389;-71
2022/11/07 00:53:51;;;;;;;52.63;22.13;;;;;;;2.26;100.00;100337.09;5023459;28;20458;-72
2022/11/07 00:56:21;;;;;;;48.92;20.55;;;;;;;2.29;100.00;100332.63;5056693;28;20470;-71
2022/11/07 00:58:53;;;;;;;53.35;21.10;;;;;;;2.28;100.00;100328.22;5040055;28;20492;-73
2022/11/07 01:01:29;;;;;;;56.92;20.95;;;;;;;2.30;100.00;100326.53;5074184;28;20058;-72
2022/11/07 01:06:42;;;;;;;50.40;21.77;;;;;;;2.33;100.00;100316.44;5059099;28;20063;-70
2022/11/07 01:09:11;;;;;;;55.55;21.45;;;;;;;2.34;100.00;100309.56;5056482;28;20040;-72
2022/11/07 01:11:37;;;;;;;46.60;18.25;;;;;;;2.34;100.00;100310.34;5056276;28;20039;-71
2022/11/07 01:14:05;;;;;;;42.58;18.70;;;;;;;2.36;100.00;100307.09;5039686;28;20036;-70
2022/11/07 01:16:34;;;;;;;41.25;19.67;;;;;;;2.35;100.00;100302.69;5074374;28;20036;-70
2022/11/07 01:19:02;;;;;;;44.22;16.25;;;;;;;2.41;100.00;100308.59;5074005;28;20028;-70
2022/11/07 01:21:29;;;;;;;38.85;16.38;;;;;;;2.45;100.00;100300.84;5039639;28;20032;-70
2022/11/07 01:23:54;;;;;;;42.38;19.33;;;;;;;2.48;100.00;100291.53;5074001;28;20058;-71
2022/11/07 01:26:19;;;;;;;40.38;18.67;;;;;;;2.49;100.00;100279.78;5055976;28;20056;-71
2022/11/07 01:28:45;;;;;;;38.65;17.25;;;;;;;2.49;100.00;100276.97;5073820;28;20066;-72
2022/11/07 01:31:20;;;;;;;40.03;15.70;;;;;;;2.50;100.00;100272.13;5055946;28;20461;-72
2022/11/07 01:33:53;;;;;;;47.65;17.58;;;;;;;2.51;100.00;100268.09;5039238;28;20025;-70
2022/11/07 01:36:20;;;;;;;43.35;19.23;;;;;;;2.52;100.00;100272.50;5039159;28;20162;-71
2022/11/07 01:38:54;;;;;;;45.47;16.52;;;;;;;2.48;100.00;100266.94;5073592;28;20382;-72
2022/11/07 01:41:24;;;;;;;39.97;15.95;;;;;;;2.49;100.00;100262.88;5073903;28;20055;-71
2022/11/07 01:43:55;;;;;;;46.58;18.58;;;;;;;2.52;100.00;100261.22;5039408;28;20574;-70
2022/11/07 01:46:28;;;;;;;44.42;17.25;;;;;;;2.53;100.00;100252.34;5073846;28;20024;-71
2022/11/07 01:49:13;;;;;;;34.28;14.55;;;;;;;2.54;100.00;100241.84;5055775;28;20123;-73
2022/11/07 01:51:46;;;;;;;35.83;14.88;;;;;;;2.55;100.00;100246.22;5054901;28;20043;-72
2022/11/07 01:54:16;;;;;;;37.53;16.25;;;;;;;2.56;100.00;100223.25;5073722;28;20028;-69
2022/11/07 01:56:50;;;;;;;41.30;16.25;;;;;;;2.57;100.00;100215.56;5055999;28;20039;-71
2022/11/07 01:59:20;;;;;;;31.13;13.38;;;;;;;2.60;100.00;100223.94;5073494;28;20033;-71
2022/11/07 02:01:47;;;;;;;37.58;16.45;;;;;;;2.65;100.00;100229.06;5073486;28;20035;-70
2022/11/07 02:04:13;;;;;;;34.58;15.40;;;;;;;2.71;100.00;100229.31;5055439;28;20032;-71
2022/11/07 02:06:50;;;;;;;41.00;14.98;;;;;;;2.74;100.00;100217.16;5055395;28;20056;-70
2022/11/07 02:09:15;;;;;;;32.80;13.70;;;;;;;2.74;100.00;100211.50;5038996;28;20020;-71
2022/11/07 02:11:41;;;;;;;37.88;14.52;;;;;;;2.88;100.00;100199.09;5054767;28;20031;-72
2022/11/07 02:14:12;;;;;;;38.05;14.20;;;;;;;2.98;100.00;100203.66;5072244;28;20028;-70
2022/11/07 02:16:54;;;;;;;33.70;12.73;;;;;;;3.07;100.00;100206.63;5057167;28;20076;-71
2022/11/07 02:19:46;;;;;;;35.00;14.88;;;;;;;3.15;100.00;100208.81;5058502;28;20128;-71
2022/11/07 02:22:21;;;;;;;27.88;11.73;;;;;;;3.26;100.00;100217.00;5055262;28;20115;-70
2022/11/07 02:24:50;;;;;;;33.25;13.30;;;;;;;3.34;100.00;100212.72;5076605;28;20520;-72
2022/11/07 02:27:17;;;;;;;30.30;12.35;;;;;;;3.40;100.00;100205.31;5058293;28;20037;-71
2022/11/07 02:29:44;;;;;;;23.80;12.30;;;;;;;3.47;100.00;100191.00;5059302;28;20036;-72
2022/11/07 02:32:11;;;;;;;27.75;12.10;;;;;;;3.53;100.00;100182.72;5059315;28;20082;-72
2022/11/07 02:34:37;;;;;;;19.42;10.50;;;;;;;3.66;100.00;100203.34;5058133;28;20466;-70
2022/11/07 02:37:06;;;;;;;23.85;11.57;;;;;;;3.75;100.00;100205.53;5057987;28;20108;-71
2022/11/07 02:39:32;;;;;;;21.52;10.88;;;;;;;3.85;100.00;100193.91;5058183;28;20146;-71
2022/11/07 02:42:04;;;;;;;23.48;13.05;;;;;;;3.95;100.00;100187.16;5058231;28;20240;-71
2022/11/07 02:44:33;;;;;;;27.70;11.48;;;;;;;4.06;100.00;100186.84;5041684;28;20063;-71
2022/11/07 02:47:00;;;;;;;22.00;10.35;;;;;;;4.12;100.00;100193.50;5058202;28;20064;-72
2022/11/07 02:49:26;;;;;;;23.23;9.63;;;;;;;4.25;100.00;100207.66;5058917;28;20123;-70
2022/11/07 02:51:52;;;;;;;27.88;10.70;;;;;;;4.26;100.00;100181.75;5077073;28;20099;-72
2022/11/07 02:54:19;;;;;;;24.38;10.88;;;;;;;4.45;100.00;100197.69;5077346;28;20029;-70
2022/11/07 02:56:45;;;;;;;22.90;10.07;;;;;;;4.55;100.00;100194.97;5077091;28;20028;-70
2022/11/07 02:59:11;;;;;;;20.63;9.40;;;;;;;4.67;100.00;100191.31;5058981;28;20082;-73
2022/11/07 03:01:38;;;;;;;21.40;9.13;;;;;;;4.76;100.00;100197.09;5076663;28;20099;-71
2022/11/07 03:04:04;;;;;;;17.40;8.60;;;;;;;4.73;100.00;100190.31;5058648;28;20028;-72
2022/11/07 03:06:30;;;;;;;22.88;9.07;;;;;;;4.82;100.00;100198.88;5088744;28;20389;-72
2022/11/07 03:08:56;;;;;;;20.98;9.35;;;;;;;4.84;100.00;100181.44;5097550;28;20062;-71
2022/11/07 03:11:23;;;;;;;22.02;8.68;;;;;;;4.91;100.00;100190.47;5096811;28;20031;-71
2022/11/07 03:13:50;;;;;;;18.17;9.27;;;;;;;4.94;100.00;100200.91;5097004;28;20042;-70
2022/11/07 03:16:18;;;;;;;17.92;8.98;;;;;;;4.97;100.00;100207.69;5078444;28;20038;-70
2022/11/07 03:18:45;;;;;;;21.40;9.93;;;;;;;5.00;100.00;100208.81;5078430;28;20047;-69
2022/11/07 03:21:11;;;;;;;18.27;8.75;;;;;;;5.01;100.00;100204.72;5078572;28;20468;-71
2022/11/07 03:23:37;;;;;;;18.88;9.45;;;;;;;5.00;100.00;100222.97;5061619;28;20513;-71
2022/11/07 03:26:06;;;;;;;21.83;9.57;;;;;;;5.03;100.00;100220.00;5078212;28;20031;-71
2022/11/07 03:28:31;;;;;;;23.05;10.70;;;;;;;5.05;100.00;100220.38;5096737;28;20476;-71
2022/11/07 03:31:03;;;;;;;19.40;9.05;;;;;;;5.09;100.00;100228.72;5061139;28;20035;-72
2022/11/07 03:33:29;;;;;;;17.90;9.45;;;;;;;5.09;100.00;100232.34;5078371;28;20047;-71
2022/11/07 03:35:55;;;;;;;21.33;9.30;;;;;;;5.10;100.00;100224.66;5078457;28;20049;-72
2022/11/07 03:38:22;;;;;;;23.08;9.68;;;;;;;5.09;100.00;100225.91;5095860;28;20537;-72
2022/11/07 03:40:47;;;;;;;24.15;10.18;;;;;;;5.12;100.00;100228.59;5078441;28;20027;-72
2022/11/07 03:43:12;;;;;;;18.70;9.85;;;;;;;5.09;100.00;100223.06;5096170;28;20047;-71
2022/11/07 03:45:39;;;;;;;17.90;9.63;;;;;;;5.15;100.00;100247.53;5079549;28;20023;-70
2022/11/07 03:48:05;;;;;;;22.40;10.13;;;;;;;5.17;100.00;100242.19;5097773;28;20067;-70
2022/11/07 03:50:32;;;;;;;19.52;9.27;;;;;;;5.21;100.00;100247.72;5097989;28;20464;-71
2022/11/07 03:52:58;;;;;;;16.63;9.07;;;;;;;5.22;100.00;100244.44;5079462;28;20024;-70
2022/11/07 03:55:24;;;;;;;26.08;10.30;;;;;;;5.23;100.00;100251.69;5061733;28;20069;-70
2022/11/07 03:57:50;;;;;;;19.20;9.93;;;;;;;5.08;100.00;100230.75;5096449;28;20031;-71
2022/11/07 04:00:16;;;;;;;17.65;9.25;;;;;;;5.23;100.00;100248.06;5060665;28;20040;-71
2022/11/07 04:02:43;;;;;;;17.10;8.23;;;;;;;5.23;100.00;100246.03;5094976;28;20495;-71
2022/11/07 04:05:11;;;;;;;17.63;8.30;;;;;;;5.22;100.00;100241.59;5077697;28;20510;-70
2022/11/07 04:07:37;;;;;;;16.83;7.88;;;;;;;5.22;100.00;100244.44;5077490;28;20056;-71
2022/11/07 04:10:04;;;;;;;18.67;9.45;;;;;;;5.25;100.00;100248.41;5077515;28;20106;-72
2022/11/07 04:17:59;;;;;;;18.40;8.95;;;;;;;5.30;100.00;100237.25;5095518;28;20095;-72
2022/11/07 04:20:27;;;;;;;17.90;9.52;;;;;;;5.33;100.00;100252.56;5095765;28;20024;-72
2022/11/07 04:22:53;;;;;;;18.63;9.20;;;;;;;5.34;100.00;100246.44;5077778;28;20112;-71
2022/11/07 04:27:41;;;;;;;23.27;9.40;;;;;;;5.37;100.00;100239.06;5095537;28;20039;-71
2022/11/07 04:28:05;;;;;;;18.17;9.13;;;;;;;5.43;100.00;100234.41;5079328;28;20036;-71
2022/11/07 04:30:31;;;;;;;22.48;8.52;;;;;;;5.41;100.00;100217.06;5095588;28;20415;-72
2022/11/07 04:33:00;;;;;;;18.77;8.32;;;;;;;5.50;100.00;100231.28;5095173;28;20358;-71
2022/11/07 04:35:28;;;;;;;19.92;8.60;;;;;;;5.55;100.00;100244.09;5077164;28;20064;-72
2022/11/07 04:37:54;;;;;;;17.58;8.50;;;;;;;5.58;100.00;100243.97;5076505;28;20532;-70
2022/11/07 04:40:21;;;;;;;18.98;9.27;;;;;;;5.61;100.00;100239.41;5095194;28;20032;-71
2022/11/07 04:42:48;;;;;;;16.98;8.43;;;;;;;5.63;100.00;100234.88;5095251;28;20036;-71
2022/11/07 04:45:15;;;;;;;19.48;8.82;;;;;;;5.65;100.00;100229.53;5076976;28;20036;-71
2022/11/07 04:47:43;;;;;;;15.02;8.15;;;;;;;5.68;100.00;100231.44;5076897;28;20085;-71
2022/11/07 04:50:11;;;;;;;18.15;8.93;;;;;;;5.71;100.00;100229.72;5094907;28;20030;-71
2022/11/07 04:52:37;;;;;;;18.50;9.35;;;;;;;5.71;100.00;100224.06;5043806;28;20024;-70
2022/11/07 04:55:06;;;;;;;18.77;9.18;;;;;;;5.76;100.00;100231.97;5094957;28;20032;-71
2022/11/07 04:57:33;;;;;;;20.15;9.75;;;;;;;5.77;100.00;100225.84;5076918;28;20036;-71
2022/11/07 05:00:00;;;;;;;19.23;8.98;;;;;;;5.78;100.00;100226.63;5076517;28;20384;-72
2022/11/07 05:02:26;;;;;;;22.35;9.43;;;;;;;5.78;100.00;100229.47;5059490;28;20122;-73
2022/11/07 05:04:52;;;;;;;17.10;9.35;;;;;;;5.77;100.00;100234.34;5076610;28;20095;-70
2022/11/07 05:07:19;;;;;;;18.88;9.15;;;;;;;5.77;100.00;100225.03;5094473;28;20101;-71
2022/11/07 05:09:44;;;;;;;20.33;10.07;;;;;;;5.69;100.00;100209.56;5094589;28;20070;-73
2022/11/07 05:12:11;;;;;;;18.33;8.80;;;;;;;5.81;100.00;100223.66;5076337;28;20020;-70
2022/11/07 05:14:36;;;;;;;23.05;8.90;;;;;;;5.84;100.00;100215.50;5094447;28;20020;-72
2022/11/07 05:17:02;;;;;;;22.15;8.23;;;;;;;5.84;100.00;100216.28;5094486;28;20028;-72
2022/11/07 05:19:30;;;;;;;17.50;9.07;;;;;;;5.83;100.00;100214.69;5076197;28;20024;-71
2022/11/07 05:24:40;;;;;;;17.55;8.68;;;;;;;5.78;100.00;100226.63;5094219;28;20089;-70
2022/11/07 05:27:13;;;;;;;19.85;9.07;;;;;;;5.80;100.00;100221.28;5094236;28;20460;-70
2022/11/07 05:29:40;;;;;;;17.25;9.30;;;;;;;5.86;100.00;100236.44;5060382;28;20031;-72
2022/11/07 05:32:05;;;;;;;15.85;9.57;;;;;;;5.91;100.00;100237.91;5057938;28;20041;-71
2022/11/07 05:34:37;;;;;;;16.38;8.95;;;;;;;5.96;100.00;100245.81;5050632;28;20033;-70
2022/11/07 05:37:08;;;;;;;21.95;9.65;;;;;;;5.99;100.00;100250.56;5053854;28;20041;-70
2022/11/07 05:39:55;;;;;;;27.88;10.23;;;;;;;6.03;100.00;100254.84;5053812;28;20443;-71
2022/11/07 05:42:36;;;;;;;16.55;9.65;;;;;;;6.05;100.00;100251.53;5078404;28;20487;-71
2022/11/07 05:45:04;;;;;;;21.77;9.35;;;;;;;6.08;100.00;100254.25;5092598;28;20020;-73
2022/11/07 05:47:29;;;;;;;17.48;9.73;;;;;;;6.08;100.00;100251.41;5075666;28;20503;-71
2022/11/07 05:50:03;;;;;;;25.95;8.93;;;;;;;6.15;100.00;100256.81;5075498;28;20488;-71
2022/11/07 05:52:29;;;;;;;24.10;9.73;;;;;;;6.16;100.00;100252.72;5075735;28;20423;-71
2022/11/07 05:54:54;;;;;;;24.13;9.45;;;;;;;6.14;100.00;100260.13;5075433;28;20461;-72
2022/11/07 05:57:21;;;;;;;21.98;9.23;;;;;;;6.25;100.00;100269.00;5094145;28;20032;-70
2022/11/07 05:59:49;;;;;;;17.33;9.60;;;;;;;6.27;100.00;100266.50;5093708;28;20024;-72
2022/11/07 06:02:16;;;;;;;21.65;8.85;;;;;;;6.32;100.00;100282.94;5093441;28;20028;-71
2022/11/07 06:04:45;;;;;;;22.20;10.02;;;;;;;6.33;100.00;100270.34;5075558;28;20444;-71
2022/11/07 06:07:12;;;;;;;18.20;8.68;;;;;;;6.34;100.00;100271.91;5058414;28;20045;-71
2022/11/07 06:09:37;;;;;;;23.23;9.77;;;;;;;6.38;100.00;100278.25;5054554;28;20036;-71
2022/11/07 06:12:05;;;;;;;21.05;9.02;;;;;;;6.39;100.00;100276.19;5072339;28;20040;-73
2022/11/07 06:14:34;;;;;;;19.95;9.43;;;;;;;6.36;100.00;100282.81;5059384;28;20166;-71
2022/11/07 06:17:00;;;;;;;23.52;8.73;;;;;;;6.45;100.00;100297.84;5072727;28;20028;-70
2022/11/07 06:19:25;;;;;;;19.02;8.70;;;;;;;6.47;100.00;100305.91;5038068;28;20036;-71
2022/11/07 06:21:54;;;;;;;18.05;9.32;;;;;;;6.46;100.00;100307.94;5060647;28;20067;-70
2022/11/07 06:24:20;;;;;;;22.73;9.80;;;;;;;6.39;100.00;100291.16;5052138;28;20013;-71
2022/11/07 06:26:45;;;;;;;25.13;9.50;;;;;;;6.60;100.00;100330.09;5050570;28;20082;-71
2022/11/07 06:29:11;;;;;;;17.90;8.15;;;;;;;6.65;100.00;100320.97;5014811;28;20391;-72
2022/11/07 06:31:36;;;;;;;26.45;9.88;;;;;;;6.72;100.00;100319.13;5032529;28;20475;-71
2022/11/07 06:34:02;;;;;;;18.65;8.73;;;;;;;6.63;100.00;100312.13;5049928;28;20033;-71
2022/11/07 06:36:28;;;;;;;26.95;9.52;;;;;;;6.77;100.00;100312.81;5049884;28;20452;-72
2022/11/07 06:38:53;;;;;;;16.65;8.60;;;;;;;6.92;100.00;100325.19;5049242;28;20459;-71
2022/11/07 06:41:19;;;;;;;22.00;8.98;;;;;;;7.00;100.00;100323.63;5050477;28;20117;-70
2022/11/07 06:43:44;;;;;;;21.80;9.13;;;;;;;7.06;100.00;100327.47;5032960;28;20016;-72
2022/11/07 06:46:11;;;;;;;56.60;11.77;;;;;;;7.14;100.00;100331.56;5016403;28;20056;-71
2022/11/07 06:48:37;;;;;;;85.40;13.95;;;;;;;7.21;100.00;100344.72;5032906;28;20027;-72
2022/11/07 06:51:04;;;;;;;29.52;9.60;;;;;;;7.23;100.00;100339.34;5050655;28;20100;-74
2022/11/07 06:53:29;;;;;;;53.13;12.23;;;;;;;7.30;100.00;100348.38;5050579;28;20029;-73
2022/11/07 06:55:57;;;;;;;50.30;12.35;;;;;;;7.35;100.00;100344.91;5032833;28;20029;-72
2022/11/07 06:58:23;;;;;;;38.22;11.13;;;;;;;7.42;100.00;100352.34;5032679;28;20028;-72
2022/11/07 07:00:48;;;;;;;29.05;8.93;;;;;;;7.50;100.00;100351.59;5034364;28;20528;-72
2022/11/07 07:03:14;;;;;;;17.98;7.97;;;;;;;7.55;100.00;100347.31;5056378;28;20068;-72
2022/11/07 07:05:39;;;;;;;13.43;6.50;;;;;;;7.63;100.00;100348.59;5056202;28;20392;-72
2022/11/07 07:08:06;;;;;;;21.25;7.82;;;;;;;7.70;100.00;100353.19;5056232;28;20032;-72
2022/11/07 07:10:37;;;;;;;16.17;7.22;;;;;;;7.78;100.00;100363.00;5056605;28;20028;-72
2022/11/07 07:13:02;;;;;;;17.33;9.23;;;;;;;7.85;100.00;100365.53;5055070;28;20029;-72
2022/11/07 07:15:28;;;;;;;14.70;6.72;;;;;;;7.90;100.00;100364.91;5056337;28;20386;-71
2022/11/07 07:17:53;;;;;;;15.60;7.63;;;;;;;7.90;100.00;100370.59;5056187;28;20025;-71
2022/11/07 07:20:18;;;;;;;13.18;7.20;;;;;;;7.96;100.00;100371.56;5054238;28;20052;-72
2022/11/07 07:22:44;;;;;;;12.90;7.53;;;;;;;8.00;100.00;100377.88;5040347;28;20406;-71
2022/11/07 07:25:10;;;;;;;18.50;7.30;;;;;;;8.04;100.00;100384.19;5038085;28;20025;-71
2022/11/07 07:27:35;;;;;;;14.68;6.93;;;;;;;8.08;100.00;100389.72;5036492;28;20061;-71
2022/11/07 07:30:01;;;;;;;21.25;8.32;;;;;;;8.14;100.00;100382.16;5035668;28;20466;-74
2022/11/07 07:32:26;;;;;;;28.38;9.07;;;;;;;8.15;100.00;100376.00;5048584;28;20064;-71
2022/11/07 07:34:52;;;;;;;22.98;8.55;;;;;;;8.32;100.00;100393.56;5048007;28;20034;-71
2022/11/07 07:37:17;;;;;;;25.52;8.25;;;;;;;8.46;100.00;100390.06;5055334;28;20032;-73
2022/11/07 07:39:42;;;;;;;21.92;8.98;;;;;;;8.61;100.00;100393.03;5055829;28;20381;-71
2022/11/07 07:42:09;;;;;;;35.30;9.25;;;;;;;8.75;100.00;100398.91;5055024;28;20464;-69
2022/11/07 07:44:35;;;;;;;22.10;8.80;;;;;;;8.87;100.00;100391.41;5055544;28;20132;-70
2022/11/07 07:47:01;;;;;;;27.88;9.35;;;;;;;8.98;100.00;100405.94;5054307;28;20107;-70
2022/11/07 07:49:27;;;;;;;20.67;8.30;;;;;;;9.02;100.00;100402.91;5055635;28;20470;-70
2022/11/07 07:51:52;;;;;;;15.82;7.80;;;;;;;9.03;100.00;100402.44;5053039;28;20025;-71
2022/11/07 07:54:17;;;;;;;18.42;7.65;;;;;;;9.00;100.00;100396.94;5055594;28;20033;-71
2022/11/07 07:56:43;;;;;;;18.20;7.78;;;;;;;9.10;100.00;100409.88;5051786;28;20033;-75
2022/11/07 07:59:08;;;;;;;47.65;11.23;;;;;;;9.15;100.00;100410.00;5035724;28;20037;-73
2022/11/07 08:01:34;;;;;;;25.40;8.52;;;;;;;9.18;100.00;100409.06;5055168;28;20447;-73
2022/11/07 08:03:59;;;;;;;17.52;8.25;;;;;;;9.22;100.00;100414.56;5053735;28;20064;-73
2022/11/07 08:06:26;;;;;;;21.77;8.23;;;;;;;9.22;100.00;100409.66;5055435;28;20057;-73
2022/11/07 08:08:51;;;;;;;24.02;8.73;;;;;;;9.26;100.00;100420.88;5035538;28;20473;-69
2022/11/07 08:11:18;;;;;;;19.77;7.85;;;;;;;9.32;100.00;100421.81;5032670;28;20128;-69
2022/11/07 08:13:43;;;;;;;12.98;7.03;;;;;;;9.39;100.00;100415.78;5053885;28;20032;-69
2022/11/07 08:16:08;;;;;;;26.77;6.70;;;;;;;9.50;100.00;100423.78;5037469;28;20385;-71
2022/11/07 08:18:41;;;;;;;23.58;7.85;;;;;;;9.52;100.00;100419.19;5055195;28;20044;-71
2022/11/07 08:21:07;;;;;;;23.83;8.40;;;;;;;9.63;100.00;100419.47;5055369;28;20029;-71
2022/11/07 08:23:33;;;;;;;36.35;9.85;;;;;;;9.69;100.00;100417.50;5037406;28;20489;-72
2022/11/07 08:26:01;;;;;;;37.15;9.02;;;;;;;9.90;100.00;100423.44;5019193;28;20048;-72
2022/11/07 08:28:28;;;;;;;28.60;7.35;;;;;;;10.09;100.00;100439.16;5034544;28;20033;-72
2022/11/07 08:31:07;;;;;;;22.67;7.55;;;;;;;10.27;100.00;100441.91;5034134;28;20033;-73
2022/11/07 08:33:32;;;;;;;42.20;10.30;;;;;;;10.40;100.00;100433.88;5034755;28;20029;-71
2022/11/07 08:35:59;;;;;;;31.25;9.30;;;;;;;10.39;100.00;100411.50;5034440;28;20446;-70
2022/11/07 08:38:25;;;;;;;37.63;10.32;;;;;;;10.64;100.00;100442.38;5016660;28;20378;-72
2022/11/07 08:40:53;;;;;;;27.38;7.90;;;;;;;10.77;100.00;100440.06;5016676;28;20111;-73
2022/11/07 08:43:18;;;;;;;42.55;10.77;;;;;;;10.82;100.00;100422.22;5016740;28;20033;-74
2022/11/07 08:45:46;;;;;;;23.17;8.07;;;;;;;11.12;100.00;100445.91;5034452;28;20021;-77
2022/11/07 08:48:13;;;;;;;41.03;8.95;;;;;;;11.25;100.00;100439.88;5034311;28;20049;-74
2022/11/07 08:50:39;;;;;;;89.00;17.60;;;;;;;11.31;100.00;100446.50;5034415;28;20033;-74
2022/11/07 08:53:05;;;;;;;49.95;11.48;;;;;;;11.34;100.00;100442.63;5016737;28;20029;-74
2022/11/07 08:55:30;;;;;;;35.30;8.80;;;;;;;11.47;100.00;100448.81;5034411;28;20068;-73
2022/11/07 08:58:03;;;;;;;99.93;13.68;;;;;;;11.58;100.00;100459.66;5034258;28;20112;-75
2022/11/07 09:00:29;;;;;;;32.15;8.90;;;;;;;11.71;100.00;100458.06;5034163;28;20037;-75
2022/11/07 09:02:54;;;;;;;56.72;12.65;;;;;;;11.85;100.00;100465.03;5016466;28;20025;-72
2022/11/07 09:05:20;;;;;;;18.83;7.70;;;;;;;11.97;100.00;100463.09;5034395;28;20033;-73
2022/11/07 09:07:45;;;;;;;18.23;7.10;;;;;;;12.03;100.00;100467.66;5049845;28;20041;-76
2022/11/07 09:10:11;;;;;;;22.13;8.40;;;;;;;11.91;100.00;100479.44;5035718;28;20081;-75
2022/11/07 09:12:43;;;;;;;11.90;6.70;;;;;;;11.84;100.00;100472.84;5054076;28;20024;-76
2022/11/07 09:15:09;;;;;;;14.45;6.63;;;;;;;11.72;100.00;100467.44;5052550;28;20492;-75
2022/11/07 09:17:35;;;;;;;13.25;5.85;;;;;;;11.47;100.00;100468.84;5052740;28;20021;-74
2022/11/07 09:20:03;;;;;;;11.60;5.80;;;;;;;11.36;100.00;100452.31;5053340;28;20386;-74
2022/11/07 09:22:30;;;;;;;7.47;5.60;;;;;;;11.42;100.00;100463.81;5053748;28;20028;-74
2022/11/07 09:24:56;;;;;;;10.43;5.50;;;;;;;11.50;100.00;100469.94;5051890;28;20031;-74
2022/11/07 09:27:21;;;;;;;12.30;6.63;;;;;;;11.53;100.00;100466.88;5053576;28;20025;-73
2022/11/07 09:29:47;;;;;;;10.93;5.50;;;;;;;11.59;100.00;100472.69;5053724;28;20029;-74
2022/11/07 09:32:13;;;;;;;10.07;5.70;;;;;;;11.55;100.00;100466.38;5052102;28;20482;-72
2022/11/07 09:34:39;;;;;;;8.90;5.55;;;;;;;11.49;100.00;100460.56;5052683;28;20068;-74
2022/11/07 09:37:04;;;;;;;18.30;5.60;;;;;;;11.46;100.00;100469.38;5053297;28;20477;-74
2022/11/07 09:39:30;;;;;;;10.32;6.25;;;;;;;11.52;100.00;100476.75;5053737;28;20036;-75
2022/11/07 09:42:01;;;;;;;11.73;5.45;;;;;;;11.57;100.00;100458.88;5053154;28;20056;-74
2022/11/07 09:44:45;;;;;;;;;;;;;;;11.60;100.00;100472.22;5053727;28;20029;-72
2022/11/07 09:47:15;;;;;;;11.27;5.00;;;;;;;11.71;100.00;100472.38;5053673;28;19908;-75
2022/11/07 09:49:47;;;;;;;13.45;5.85;;;;;;;11.78;100.00;100485.47;5053432;28;20044;-76
2022/11/07 09:52:16;;;;;;;9.10;4.72;;;;;;;11.83;100.00;100485.56;5053300;28;20426;-77
2022/11/07 09:54:50;;;;;;;20.35;5.95;;;;;;;11.94;100.00;100472.72;5053466;28;20060;-75
2022/11/07 09:57:17;;;;;;;51.05;13.30;;;;;;;11.98;100.00;100468.34;5052056;28;20016;-74
2022/11/07 09:59:49;;;;;;;8.00;4.57;;;;;;;12.06;100.00;100474.47;5053033;28;20021;-76
2022/11/07 10:02:16;;;;;;;8.13;4.93;;;;;;;12.02;100.00;100448.09;5051644;28;20029;-75
2022/11/07 10:04:42;;;;;;;8.27;3.88;;;;;;;12.24;100.00;100469.25;5053222;28;20032;-73
2022/11/07 10:07:19;;;;;;;6.40;4.00;;;;;;;12.37;100.00;100468.13;5035575;28;20063;-73
2022/11/07 10:10:09;;;;;;;7.03;4.00;;;;;;;12.52;100.00;100481.09;5035703;28;20053;-74
2022/11/07 10:12:56;;;;;;;22.23;5.05;;;;;;;12.63;100.00;100475.50;5052052;28;20157;-74
2022/11/07 10:15:37;;;;;;;19.27;5.00;;;;;;;12.76;100.00;100477.97;5052842;28;20108;-73
2022/11/07 10:18:24;;;;;;;9.00;5.50;;;;;;;12.92;100.00;100470.84;5052971;28;20071;-74
2022/11/07 10:21:28;;;;;;;15.73;4.43;;;;;;;13.02;100.00;100473.06;5051050;28;20024;-75
2022/11/07 10:24:12;;;;;;;16.27;4.53;;;;;;;13.14;100.00;100471.84;5021799;28;20108;-75
2022/11/07 10:26:44;;;;;;;10.05;3.70;;;;;;;13.12;100.00;100485.94;5052909;28;20051;-73
2022/11/07 10:29:18;;;;;;;4.55;2.90;;;;;;;13.20;100.00;100480.53;5051431;28;20059;-74
2022/11/07 10:32:03;;;;;;;8.15;3.97;;;;;;;13.22;100.00;100477.94;5051624;28;20535;-73
2022/11/07 10:34:46;;;;;;;21.80;4.93;;;;;;;13.19;100.00;100463.84;5051616;28;20029;-76
2022/11/07 10:37:11;;;;;;;7.50;4.03;;;;;;;13.25;100.00;100476.13;5037164;28;20028;-74
2022/11/07 10:39:36;;;;;;;12.45;5.30;;;;;;;13.18;100.00;100465.13;5056940;28;20024;-75
2022/11/07 10:42:11;;;;;;;17.92;5.53;;;;;;;13.13;100.00;100461.69;5056034;28;20108;-74
2022/11/07 10:44:38;;;;;;;10.27;3.95;;;;;;;13.29;100.00;100480.38;5055328;28;20017;-74
2022/11/07 10:47:17;;;;;;;36.80;7.88;;;;;;;13.33;100.00;100472.31;5055572;28;20032;-73
2022/11/07 10:49:55;;;;;;;17.35;6.18;;;;;;;13.36;100.00;100464.75;5056128;28;20343;-75
2022/11/07 10:52:21;;;;;;;9.18;2.45;;;;;;;13.09;100.00;100471.84;5054989;28;20039;-73
2022/11/07 10:54:49;;;;;;;10.18;3.20;;;;;;;12.91;100.00;100461.47;5054950;28;20481;-75
2022/11/07 10:57:19;;;;;;;82.85;11.98;;;;;;;12.88;100.00;100456.75;5038963;28;20104;-75
2022/11/07 10:59:54;;;;;;;13.05;4.82;;;;;;;12.92;100.00;100453.66;5055011;28;20020;-72
2022/11/07 11:02:24;;;;;;;13.50;3.38;;;;;;;12.94;100.00;100466.22;5056252;28;20119;-74
2022/11/07 11:04:53;;;;;;;7.45;2.03;;;;;;;12.88;100.00;100458.81;5056584;28;20020;-80
2022/11/07 11:07:24;;;;;;;6.40;1.95;;;;;;;12.88;100.00;100465.34;5073980;28;20067;-75
2022/11/07 11:09:56;;;;;;;8.07;2.60;;;;;;;12.70;100.00;100457.06;5076116;28;20032;-75
2022/11/07 11:12:32;;;;;;;14.75;2.92;;;;;;;12.77;100.00;100458.69;5076262;28;20028;-75
2022/11/07 11:15:08;;;;;;;8.02;2.65;;;;;;;12.87;100.00;100454.38;5075735;28;20067;-75
2022/11/07 11:17:33;;;;;;;13.55;3.22;;;;;;;12.96;100.00;100451.34;5058353;28;20082;-75
2022/11/07 11:19:59;;;;;;;3.00;1.92;;;;;;;12.93;100.00;100447.41;5057713;28;20036;-75
2022/11/07 11:22:24;;;;;;;8.05;2.00;;;;;;;13.01;100.00;100450.59;5076074;28;20347;-73
2022/11/07 11:25:03;;;;;;;20.25;5.15;;;;;;;13.18;100.00;100451.56;5075947;28;20531;-74
2022/11/07 11:27:32;;;;;;;23.30;5.03;;;;;;;13.13;100.00;100450.22;5076068;28;20024;-74
2022/11/07 11:30:06;;;;;;;12.32;4.38;;;;;;;13.23;100.00;100458.66;5076084;28;20039;-74
2022/11/07 11:32:31;;;;;;;16.52;3.45;;;;;;;13.35;100.00;100458.22;5075547;28;20028;-74